WetterOnline ( https://www.wetteronline.ch )

Wetter aktuell Usedom

Aktuelles Wetter: Ueckermünde (7m)

6-stündlich | Neueste Meldungen
Ortszeit Temperatur Wetter
Mi, 18.09. 8:00 7.6° C wolkenlos
Mi, 18.09. 2:00 9.2° C wolkenlos
Di, 17.09. 20:00 10.3° C leicht bewölkt
Di, 17.09. 14:00 12.2° C bewölkt
Di, 17.09. 8:00 11.2° C bewölkt
Di, 17.09. 2:00 10.2° C wolkig
Mo, 16.09. 20:00 12.1° C wolkenlos
Mo, 16.09. 14:00 15.9° C bewölkt
Ortszeit Temperatur Wetter
Mi, 18.09. 11:00 12.4° C bewölkt
Mi, 18.09. 10:50 12.4° C bewölkt
Mi, 18.09. 10:40 12.2° C wolkig
Mi, 18.09. 10:30 12.0° C leicht bewölkt
Mi, 18.09. 10:20 12.0° C leicht bewölkt
Mi, 18.09. 10:10 11.8° C wolkenlos
Mi, 18.09. 10:00 11.7° C fast wolkenlos
Mi, 18.09. 9:30 10.9° C leicht bewölkt
Mi, 18.09. 9:00 10.0° C wolkenlos
Mi, 18.09. 8:30 8.7° C wolkenlos
Mi, 18.09. 8:00 7.6° C wolkenlos
Ortszeit Relative Feuchte Sichtweite
Mi, 18.09. 8:00 89% 30 km
Mi, 18.09. 2:00 83% 60 km
Di, 17.09. 20:00 71% 65 km
Di, 17.09. 14:00 79% 55 km
Di, 17.09. 8:00 78% 35 km
Di, 17.09. 2:00 82% 40 km
Mo, 16.09. 20:00 63% 45 km
Mo, 16.09. 14:00 54% 30 km
Ortszeit Relative Feuchte Sichtweite
Mi, 18.09. 11:00 75% 24 km
Mi, 18.09. 10:50 75% -
Mi, 18.09. 10:40 73% -
Mi, 18.09. 10:30 75% 14 km
Mi, 18.09. 10:20 75% -
Mi, 18.09. 10:10 75% -
Mi, 18.09. 10:00 76% 16 km
Mi, 18.09. 9:30 79% 30 km
Mi, 18.09. 9:00 82% 26 km
Mi, 18.09. 8:30 86% 24 km
Mi, 18.09. 8:00 89% 30 km
Ortszeit Niederschlagsmenge Niederschlagsart
Mi, 18.09. 8:00 0.6 l/m2 in 12 Std. -
Mi, 18.09. 2:00 0.6 l/m2 in 6 Std. Regen
Di, 17.09. 20:00 2 l/m2 in 12 Std. Regen
Di, 17.09. 14:00 1 l/m2 in 6 Std. Regen
Di, 17.09. 8:00 0.0 l/m2 in 12 Std. -
Di, 17.09. 2:00 0.0 l/m2 in 6 Std. -
Mo, 16.09. 20:00 0.1 l/m2 in 12 Std. Regen
Mo, 16.09. 14:00 0.0 l/m2 in 6 Std. -
Ortszeit Niederschlagsmenge Niederschlagsart
Mi, 18.09. 11:00 0.0 l/m2 in 1 Std. -
Mi, 18.09. 10:50 keine Meldung -
Mi, 18.09. 10:40 keine Meldung -
Mi, 18.09. 10:30 0.0 l/m2 in 1 Std. -
Mi, 18.09. 10:20 keine Meldung -
Mi, 18.09. 10:10 keine Meldung -
Mi, 18.09. 10:00 0.0 l/m2 in 1 Std. -
Mi, 18.09. 9:30 0.0 l/m2 in 1 Std. -
Mi, 18.09. 9:00 0.0 l/m2 in 1 Std. -
Mi, 18.09. 8:30 0.0 l/m2 in 1 Std. -
Mi, 18.09. 8:00 0.0 l/m2 in 1 Std. -
Ortszeit Stärke Spitze Richtung
km/h Bft. km/h Grad Sektor
Mi, 18.09. 8:00 18 3 36 250° W
Mi, 18.09. 2:00 25 4 50 280° W
Di, 17.09. 20:00 22 4 68 260° W
Di, 17.09. 14:00 14 3 65 250° W
Di, 17.09. 8:00 18 3 29 240° SW
Di, 17.09. 2:00 13 3 28 240° SW
Mo, 16.09. 20:00 11 2 43 270° W
Mo, 16.09. 14:00 20 4 44 270° W
Ortszeit Stärke Spitze Richtung
km/h Bft. km/h Grad Sektor
Mi, 18.09. 11:00 20 4 35 290° W
Mi, 18.09. 10:50 20 4 - 290° W
Mi, 18.09. 10:40 20 4 - 280° W
Mi, 18.09. 10:30 22 4 36 290° W
Mi, 18.09. 10:20 22 4 - 290° W
Mi, 18.09. 10:10 24 4 - 280° W
Mi, 18.09. 10:00 20 4 35 270° W
Mi, 18.09. 9:30 19 3 30 260° W
Mi, 18.09. 9:00 19 3 28 260° W
Mi, 18.09. 8:30 18 3 29 250° W
Mi, 18.09. 8:00 18 3 25 250° W
Ortszeit Untergrenze Bedeckung Gattung
total tief tief mittel hoch
Mi, 18.09. 8:00 - 0/8 0/8 - - -
Mi, 18.09. 2:00 - 0/8 0/8 - - -
Di, 17.09. 20:00 1800 m 4/8 1/8 - - -
Di, 17.09. 14:00 810 m 7/8 7/8 - - -
Di, 17.09. 8:00 1800 m 7/8 7/8 - - -
Di, 17.09. 2:00 960 m 5/8 7/8 - - -
Mo, 16.09. 20:00 - 0/8 0/8 - - -
Mo, 16.09. 14:00 1320 m 7/8 7/8 - - -
Ortszeit Bedeckungsgrad in Achtel und Wolkenuntergrenze
Mi, 18.09. 11:00 5(600m) 6(750m) 7(900m)
Mi, 18.09. 10:50 5(600m) 6(750m) 7(900m)
Mi, 18.09. 10:40 5(600m)
Mi, 18.09. 10:30 2(540m)
Mi, 18.09. 10:20 2(540m)
Mi, 18.09. 10:10 keine Wolken
Mi, 18.09. 10:00 1(570m)
Mi, 18.09. 9:30 3(570m)
Mi, 18.09. 9:00 keine Wolken
Mi, 18.09. 8:30 keine Wolken
Mi, 18.09. 8:00 keine Wolken
Ortszeit Luftdruck NN (hPa) Tendenz (hPa in 3 Std.)
Mi, 18.09. 8:00 1017 + 1,5
Mi, 18.09. 2:00 1014 + 2,7
Di, 17.09. 20:00 1009 + 0,5
Di, 17.09. 14:00 1009 - 1,6
Di, 17.09. 8:00 1012 - 1,6
Di, 17.09. 2:00 1015 - 0,8
Mo, 16.09. 20:00 1016 0,0
Mo, 16.09. 14:00 1016 - 0,4
Ortszeit Luftdruck NN (hPa) Tendenz (hPa in 3 Std.)
Mi, 18.09. 11:00 1019 + 1,4
Mi, 18.09. 10:50 1019 keine Meldung
Mi, 18.09. 10:40 1019 keine Meldung
Mi, 18.09. 10:30 1019 + 1,5
Mi, 18.09. 10:20 1019 keine Meldung
Mi, 18.09. 10:10 1019 keine Meldung
Mi, 18.09. 10:00 1018 + 1,5
Mi, 18.09. 9:30 1018 + 1,6
Mi, 18.09. 9:00 1018 + 1,7
Mi, 18.09. 8:30 1018 + 1,4
Mi, 18.09. 8:00 1017 + 1,5
Ortszeit Schneehöhe (cm)
Mi, 18.09. 8:00 -
Mi, 18.09. 2:00 -
Di, 17.09. 20:00 -
Di, 17.09. 14:00 -
Di, 17.09. 8:00 -
Di, 17.09. 2:00 -
Mo, 16.09. 20:00 -
Mo, 16.09. 14:00 -
Ortszeit Schneehöhe (cm)
Mi, 18.09. 11:00 -
Mi, 18.09. 10:50 -
Mi, 18.09. 10:40 -
Mi, 18.09. 10:30 -
Mi, 18.09. 10:20 -
Mi, 18.09. 10:10 -
Mi, 18.09. 10:00 -
Mi, 18.09. 9:30 -
Mi, 18.09. 9:00 -
Mi, 18.09. 8:30 -
Mi, 18.09. 8:00 -
Link zu dieser Seite / Seite empfehlen

Das Wetter in ...